Main page
METAR-TAF:

METAR-TAF

Airports :

Cornwall Airport Newquay

Newquay Cornwall, England

latitude: 50-26N, longitude: 005-00W, elevation: 119 m

Current weather observation

The report was made 42 minutes ago, at 03:20 UTC
Wind 7 kt from the South
Temperature 13°C
Humidity 100%
Pressure 1010 hPa
Visibility: 9000 m

METAR: EGHQ 260320Z AUTO 17007KT 9000 NCD 13/13 Q1010

Time: 05:02 (04:02 UTC)

Forecast

The report was made 2 hours and 7 minutes ago, at 01:55 UTC
Forecast valid from 26 at 03 UTC to 26 at 12 UTC
Wind 7 kt from the South
Visibility 10 km or more
Scattered clouds at a height of 2000 ft
Probability 40% :
Temporary
from 26 at 03 UTC to 26 at 09 UTC
Visibility: 8000 m
Broken clouds at a height of 900 ft

TAF: EGHQ 260155Z 2603/2612 19007KT 9999 SCT020 PROB40 TEMPO 2603/2609 8000 BKN009

Weather observations and forecasts of more than 4000 airports (METAR and TAF reports).

The available stations are represented by yellow and red dots on the map.

Hover mouse over dot to see the name of the station.

Then click to see weather observations and forecasts.

To change the map : click on the green buttons with a black cross to zoom in, on the green button with a dash to zoom out, or on the green arrows for adjacent maps.


METAR-TAF: